createdAt,value
2023-05-21T00:00:12.233Z,17.60
2023-05-21T00:02:41.415Z,17.60
2023-05-21T00:05:15.043Z,17.50
2023-05-21T00:07:44.214Z,17.50
2023-05-21T00:10:13.239Z,17.50
2023-05-21T00:12:42.865Z,17.40
2023-05-21T00:15:12.290Z,17.40
2023-05-21T00:17:41.307Z,17.40
2023-05-21T00:20:12.472Z,17.40
2023-05-21T00:22:42.540Z,17.40
2023-05-21T00:25:12.263Z,17.40
2023-05-21T00:27:41.328Z,17.30
2023-05-21T00:30:10.599Z,17.30
2023-05-21T00:32:39.314Z,17.30
2023-05-21T00:35:09.326Z,17.20
2023-05-21T00:37:39.513Z,17.20
2023-05-21T00:40:09.504Z,17.20
2023-05-21T00:42:40.193Z,17.20
2023-05-21T00:45:10.434Z,17.20
2023-05-21T00:47:39.734Z,17.20
2023-05-21T00:50:10.239Z,17.20
2023-05-21T00:52:42.921Z,17.20
2023-05-21T00:55:12.038Z,17.20
2023-05-21T00:57:42.697Z,17.20
2023-05-21T01:00:13.310Z,17.20
2023-05-21T01:02:42.431Z,17.30
2023-05-21T01:05:12.162Z,17.20
2023-05-21T01:07:43.485Z,17.20
2023-05-21T01:10:13.621Z,17.20
2023-05-21T01:12:46.234Z,17.20
2023-05-21T01:15:15.394Z,17.10
2023-05-21T01:17:46.168Z,17.20
2023-05-21T01:20:18.408Z,17.20
2023-05-21T01:22:54.791Z,17.20
2023-05-21T01:25:24.315Z,17.20
2023-05-21T01:27:53.730Z,17.10
2023-05-21T01:30:23.758Z,17.10
2023-05-21T01:33:00.419Z,17.00
2023-05-21T01:35:32.720Z,17.00
2023-05-21T01:38:10.441Z,16.90
2023-05-21T01:40:46.880Z,16.90
2023-05-21T01:43:17.403Z,16.90
2023-05-21T01:45:48.682Z,16.90
2023-05-21T01:48:18.648Z,16.90
2023-05-21T01:50:47.629Z,16.90
2023-05-21T01:53:17.819Z,16.80
2023-05-21T01:55:47.191Z,16.80
2023-05-21T01:58:17.134Z,16.80
2023-05-21T02:00:46.763Z,16.70
2023-05-21T02:03:16.540Z,16.80
2023-05-21T02:05:46.070Z,16.70
2023-05-21T02:08:15.483Z,16.70
2023-05-21T02:10:46.055Z,16.70
2023-05-21T02:13:14.854Z,16.70
2023-05-21T02:15:44.967Z,16.70
2023-05-21T02:18:18.641Z,16.60
2023-05-21T02:20:47.344Z,16.60
2023-05-21T02:23:16.191Z,16.60
2023-05-21T02:25:46.434Z,16.60
2023-05-21T02:28:16.086Z,16.60
2023-05-21T02:30:44.819Z,16.50
2023-05-21T02:33:15.548Z,16.50
2023-05-21T02:35:44.763Z,16.50
2023-05-21T02:38:13.887Z,16.50
2023-05-21T02:40:42.739Z,16.50
2023-05-21T02:43:14.821Z,16.40
2023-05-21T02:45:45.920Z,16.40
2023-05-21T02:48:14.774Z,16.30
2023-05-21T02:50:44.010Z,16.40
2023-05-21T02:53:12.853Z,16.40
2023-05-21T02:55:42.181Z,16.30
2023-05-21T02:58:13.680Z,16.40
2023-05-21T03:00:42.734Z,16.40
2023-05-21T03:03:11.917Z,16.40
2023-05-21T03:05:41.459Z,16.40
2023-05-21T03:08:10.185Z,16.30
2023-05-21T03:10:39.038Z,16.30
2023-05-21T03:13:09.731Z,16.30
2023-05-21T03:15:40.594Z,16.30
2023-05-21T03:20:43.984Z,16.30
2023-05-21T03:23:16.385Z,16.30
2023-05-21T03:25:47.330Z,16.30
2023-05-21T03:28:17.824Z,16.30
2023-05-21T03:30:51.273Z,16.40
2023-05-21T03:33:38.196Z,16.30
2023-05-21T03:36:19.635Z,16.30
2023-05-21T03:38:48.428Z,16.30
2023-05-21T03:41:17.348Z,16.30
2023-05-21T03:43:50.374Z,16.30
2023-05-21T03:46:22.315Z,16.30
2023-05-21T03:49:02.782Z,16.40
2023-05-21T03:51:33.893Z,16.40
2023-05-21T03:54:02.672Z,16.40
2023-05-21T03:56:31.343Z,16.40
2023-05-21T03:59:00.036Z,16.40
2023-05-21T04:01:30.825Z,16.40
2023-05-21T04:04:00.028Z,16.40
2023-05-21T04:06:30.327Z,16.40
2023-05-21T04:08:59.456Z,16.40
2023-05-21T04:11:28.281Z,16.40
2023-05-21T04:13:56.975Z,16.50
2023-05-21T04:16:25.939Z,16.50
2023-05-21T04:18:56.955Z,16.50
2023-05-21T04:21:28.531Z,16.50
2023-05-21T04:23:57.697Z,16.70
2023-05-21T04:26:50.076Z,16.60
2023-05-21T04:29:21.311Z,16.70
2023-05-21T04:31:51.999Z,16.80
2023-05-21T04:34:22.326Z,16.90
2023-05-21T04:36:52.086Z,16.90
2023-05-21T04:39:20.944Z,17.00
2023-05-21T04:41:50.899Z,17.00
2023-05-21T04:44:19.863Z,17.10
2023-05-21T04:46:49.190Z,17.20
2023-05-21T04:49:21.110Z,17.20
2023-05-21T04:51:51.364Z,17.30
2023-05-21T04:54:20.080Z,17.40
2023-05-21T04:56:48.873Z,17.50
2023-05-21T04:59:18.817Z,17.50
2023-05-21T05:01:48.379Z,17.70
2023-05-21T05:04:17.082Z,17.70
2023-05-21T05:06:46.171Z,17.90
2023-05-21T05:09:16.378Z,18.00
2023-05-21T05:11:45.495Z,18.10
2023-05-21T05:14:14.323Z,18.20
2023-05-21T05:16:44.516Z,18.40
2023-05-21T05:19:13.262Z,18.50
2023-05-21T05:21:42.156Z,18.70
2023-05-21T05:24:10.938Z,18.80
2023-05-21T05:26:41.334Z,18.90
2023-05-21T05:29:10.125Z,19.10
2023-05-21T05:31:39.008Z,19.20
2023-05-21T05:34:08.253Z,19.40
2023-05-21T05:36:37.100Z,19.50
2023-05-21T05:39:06.115Z,19.70
2023-05-21T05:41:34.871Z,19.80
2023-05-21T05:44:05.973Z,19.90
2023-05-21T05:46:38.322Z,20.10
2023-05-21T05:49:07.744Z,20.20
2023-05-21T05:51:36.493Z,20.40
2023-05-21T05:54:05.419Z,20.60
2023-05-21T05:56:35.221Z,20.80
2023-05-21T05:59:07.648Z,21.00
2023-05-21T06:01:39.285Z,21.20
2023-05-21T06:04:08.480Z,21.30
2023-05-21T06:06:38.822Z,21.50
2023-05-21T06:09:07.580Z,21.60
2023-05-21T06:11:39.499Z,21.60
2023-05-21T06:14:09.740Z,21.80
2023-05-21T06:16:38.579Z,21.90
2023-05-21T06:19:07.387Z,22.00
2023-05-21T06:21:36.225Z,22.00
2023-05-21T06:24:07.766Z,22.10
2023-05-21T06:26:36.562Z,22.10
2023-05-21T06:29:05.752Z,22.20
2023-05-21T06:31:36.088Z,22.30
2023-05-21T06:34:05.272Z,22.30
2023-05-21T06:36:35.108Z,22.20
2023-05-21T06:39:04.080Z,22.30
2023-05-21T06:41:33.363Z,22.30
2023-05-21T06:44:06.263Z,22.30
2023-05-21T06:46:48.502Z,22.40
2023-05-21T06:49:17.211Z,22.50
2023-05-21T06:51:46.034Z,22.50
2023-05-21T06:54:15.323Z,22.50
2023-05-21T06:56:44.504Z,22.50
2023-05-21T06:59:13.342Z,22.50
2023-05-21T07:01:44.404Z,22.50
2023-05-21T07:04:14.857Z,22.60
2023-05-21T07:06:44.988Z,22.60
2023-05-21T07:09:13.793Z,22.70
2023-05-21T07:11:42.576Z,22.70
2023-05-21T07:14:12.044Z,22.60
2023-05-21T07:16:40.721Z,22.60
2023-05-21T07:19:10.086Z,22.60
2023-05-21T07:21:40.661Z,22.70
2023-05-21T07:24:09.869Z,22.70
2023-05-21T07:26:41.787Z,22.70
2023-05-21T07:29:10.833Z,22.80
2023-05-21T07:31:40.130Z,22.80
2023-05-21T07:34:09.510Z,23.00
2023-05-21T07:36:39.803Z,23.00
2023-05-21T07:39:08.842Z,23.00
2023-05-21T07:41:39.178Z,23.00
2023-05-21T07:44:09.927Z,23.00
2023-05-21T07:46:44.815Z,22.90
2023-05-21T07:49:17.078Z,22.90
2023-05-21T07:51:48.958Z,22.80
2023-05-21T07:54:17.922Z,22.80
2023-05-21T07:56:47.201Z,22.80
2023-05-21T07:59:29.913Z,22.80
2023-05-21T08:01:58.609Z,22.90
2023-05-21T08:04:27.715Z,23.00
2023-05-21T08:06:58.134Z,23.00
2023-05-21T08:09:27.154Z,22.90
2023-05-21T08:11:56.280Z,22.90
2023-05-21T08:14:24.943Z,22.80
2023-05-21T08:16:53.792Z,22.70
2023-05-21T08:19:22.591Z,22.80
2023-05-21T08:21:52.963Z,22.80
2023-05-21T08:24:24.830Z,22.90
2023-05-21T08:26:53.528Z,23.00
2023-05-21T08:29:22.301Z,23.10
2023-05-21T08:31:51.297Z,23.10
2023-05-21T08:34:20.174Z,23.20
2023-05-21T08:36:58.405Z,23.20
2023-05-21T08:39:51.394Z,23.30
2023-05-21T08:42:36.907Z,23.30
2023-05-21T08:45:09.359Z,23.40
2023-05-21T08:47:38.311Z,23.50
2023-05-21T08:50:12.005Z,23.50
2023-05-21T08:52:41.261Z,23.60
2023-05-21T08:55:12.030Z,23.70
2023-05-21T08:57:45.557Z,23.80
2023-05-21T09:00:18.016Z,23.90
2023-05-21T09:02:46.899Z,23.90
2023-05-21T09:05:19.539Z,24.10
2023-05-21T09:07:55.181Z,24.00
2023-05-21T09:10:38.497Z,24.10
2023-05-21T09:13:08.152Z,24.10
2023-05-21T09:15:38.223Z,24.20
2023-05-21T09:18:08.205Z,24.40
2023-05-21T09:20:49.551Z,24.60
2023-05-21T09:23:19.522Z,24.60
2023-05-21T09:25:52.938Z,24.60
2023-05-21T09:28:31.285Z,24.60
2023-05-21T09:31:05.284Z,24.60
2023-05-21T09:33:35.113Z,24.60
2023-05-21T09:36:04.387Z,24.70
2023-05-21T09:38:36.044Z,24.90
2023-05-21T09:41:07.867Z,25.10
2023-05-21T09:43:37.813Z,25.20
2023-05-21T09:46:07.100Z,25.30
2023-05-21T09:48:37.394Z,25.30
2023-05-21T09:51:13.491Z,25.30
2023-05-21T09:53:53.086Z,25.30
2023-05-21T09:56:29.520Z,25.40
2023-05-21T09:59:00.638Z,25.30
2023-05-21T10:01:29.859Z,25.20
2023-05-21T10:04:00.247Z,25.20
2023-05-21T10:06:30.300Z,25.40
2023-05-21T10:09:02.108Z,25.60
2023-05-21T10:11:34.948Z,25.70
2023-05-21T10:14:07.725Z,25.90
2023-05-21T10:16:37.768Z,26.10
2023-05-21T10:19:11.023Z,26.30
2023-05-21T10:21:41.225Z,26.40
2023-05-21T10:24:12.177Z,26.50
2023-05-21T10:26:43.063Z,26.70
2023-05-21T10:29:12.402Z,26.90
2023-05-21T10:31:41.573Z,27.10
2023-05-21T10:34:11.841Z,27.10
2023-05-21T10:36:41.460Z,27.30
2023-05-21T10:39:11.114Z,27.50
2023-05-21T10:41:49.012Z,27.80
2023-05-21T10:44:25.783Z,28.10
2023-05-21T10:47:29.279Z,28.30
2023-05-21T10:50:27.968Z,28.70
2023-05-21T10:53:10.658Z,28.60
2023-05-21T10:56:00.578Z,28.00
2023-05-21T10:58:48.880Z,27.70
2023-05-21T11:01:19.514Z,27.70
2023-05-21T11:03:49.256Z,27.80
2023-05-21T11:06:25.607Z,27.90
2023-05-21T11:08:55.731Z,28.20
2023-05-21T11:11:43.818Z,28.40
2023-05-21T11:14:36.384Z,28.60
2023-05-21T11:17:06.266Z,28.80
2023-05-21T11:19:39.808Z,29.00
2023-05-21T11:22:10.440Z,29.10
2023-05-21T11:24:41.401Z,29.00
2023-05-21T11:27:10.330Z,29.10
2023-05-21T11:29:45.547Z,29.30
2023-05-21T11:32:17.579Z,29.50
2023-05-21T11:34:49.904Z,29.70
2023-05-21T11:37:30.180Z,29.60
2023-05-21T11:40:17.399Z,29.60
2023-05-21T11:42:51.158Z,29.50
2023-05-21T11:45:22.448Z,29.30
2023-05-21T11:47:52.849Z,29.20
2023-05-21T11:50:22.018Z,29.20
2023-05-21T11:52:51.505Z,29.10
2023-05-21T11:55:23.658Z,29.20
2023-05-21T11:57:55.818Z,29.30
2023-05-21T12:00:25.809Z,29.30
2023-05-21T12:02:56.412Z,29.50
2023-05-21T12:05:27.282Z,29.50
2023-05-21T12:07:56.712Z,29.50
2023-05-21T12:10:25.476Z,29.70
2023-05-21T12:12:57.022Z,29.70
2023-05-21T12:15:28.594Z,29.80
2023-05-21T12:17:58.032Z,30.00
2023-05-21T12:20:30.388Z,30.00
2023-05-21T12:23:00.787Z,30.10
2023-05-21T12:25:32.144Z,30.20
2023-05-21T12:28:02.132Z,30.40
2023-05-21T12:30:32.404Z,30.50
2023-05-21T12:33:03.436Z,30.50
2023-05-21T12:35:32.860Z,30.50
2023-05-21T12:38:04.739Z,30.00
2023-05-21T12:40:39.010Z,29.50
2023-05-21T12:43:08.739Z,29.30
2023-05-21T12:45:40.982Z,29.30
2023-05-21T12:48:09.756Z,29.30
2023-05-21T12:50:42.275Z,29.30
2023-05-21T12:53:12.465Z,29.50
2023-05-21T12:55:41.716Z,29.50
2023-05-21T12:58:14.334Z,29.60
2023-05-21T13:00:45.848Z,29.70
2023-05-21T13:03:14.580Z,29.70
2023-05-21T13:05:50.620Z,29.70
2023-05-21T13:08:19.861Z,29.90
2023-05-21T13:10:48.811Z,30.10
2023-05-21T13:13:17.733Z,30.20
2023-05-21T13:15:47.918Z,30.30
2023-05-21T13:18:16.973Z,30.50
2023-05-21T13:20:45.558Z,30.90
2023-05-21T13:23:14.372Z,31.20
2023-05-21T13:25:49.803Z,31.40
2023-05-21T13:28:23.881Z,31.50
2023-05-21T13:30:55.158Z,31.50
2023-05-21T13:33:24.319Z,31.50
2023-05-21T13:35:53.140Z,31.60
2023-05-21T13:38:21.708Z,31.70
2023-05-21T13:40:50.292Z,31.90
2023-05-21T13:43:19.886Z,32.00
2023-05-21T13:45:49.929Z,32.20
2023-05-21T13:48:20.429Z,32.10
2023-05-21T13:50:49.268Z,31.70
2023-05-21T13:53:17.854Z,31.20
2023-05-21T13:55:46.501Z,30.60
2023-05-21T13:58:15.203Z,30.00
2023-05-21T14:00:43.862Z,29.90
2023-05-21T14:03:12.789Z,29.90
2023-05-21T14:05:43.143Z,30.00
2023-05-21T14:08:11.838Z,29.90
2023-05-21T14:10:40.380Z,29.80
2023-05-21T14:13:19.190Z,29.60
2023-05-21T14:15:48.950Z,29.50
2023-05-21T14:18:17.826Z,29.30
2023-05-21T14:20:48.100Z,29.20
2023-05-21T14:23:16.753Z,29.20
2023-05-21T14:25:45.477Z,29.30
2023-05-21T14:28:14.179Z,29.60
2023-05-21T14:30:42.701Z,29.80
2023-05-21T14:33:11.619Z,29.90
2023-05-21T14:35:41.494Z,30.10
2023-05-21T14:38:11.997Z,30.20
2023-05-21T14:40:40.763Z,30.20
2023-05-21T14:43:09.401Z,30.20
2023-05-21T14:45:38.332Z,30.20
2023-05-21T14:48:08.758Z,30.20
2023-05-21T14:50:37.496Z,30.10
2023-05-21T14:53:06.896Z,30.00
2023-05-21T14:55:37.598Z,30.00
2023-05-21T14:58:06.796Z,29.90
2023-05-21T15:00:37.085Z,29.80
2023-05-21T15:03:06.328Z,29.70
2023-05-21T15:05:36.232Z,29.60
2023-05-21T15:08:06.082Z,29.70
2023-05-21T15:10:36.572Z,29.80
2023-05-21T15:13:05.655Z,29.80
2023-05-21T15:15:34.404Z,29.70
2023-05-21T15:18:03.114Z,29.70
2023-05-21T15:20:31.890Z,29.60
2023-05-21T15:23:15.334Z,29.60
2023-05-21T15:25:46.755Z,29.70
2023-05-21T15:28:15.300Z,29.80
2023-05-21T15:30:43.951Z,29.90
2023-05-21T15:33:12.847Z,30.00
2023-05-21T15:35:42.020Z,30.00
2023-05-21T15:38:11.183Z,30.00
2023-05-21T15:40:42.180Z,30.00
2023-05-21T15:43:12.262Z,29.90
2023-05-21T15:45:40.966Z,29.80
2023-05-21T15:48:09.633Z,29.80
2023-05-21T15:50:38.252Z,29.80
2023-05-21T15:53:06.860Z,29.90
2023-05-21T15:55:35.917Z,29.90
2023-05-21T15:58:04.949Z,29.90
2023-05-21T16:00:35.611Z,29.80
2023-05-21T16:03:04.610Z,29.70
2023-05-21T16:05:33.442Z,29.60
2023-05-21T16:08:02.129Z,29.50
2023-05-21T16:10:30.746Z,29.50
2023-05-21T16:12:59.664Z,29.40
2023-05-21T16:15:32.484Z,29.30
2023-05-21T16:18:04.628Z,29.20
2023-05-21T16:20:33.580Z,29.10
2023-05-21T16:23:03.745Z,29.00
2023-05-21T16:25:32.571Z,28.80
2023-05-21T16:28:01.997Z,28.70
2023-05-21T16:30:31.033Z,28.60
2023-05-21T16:32:59.873Z,28.50
2023-05-21T16:35:31.215Z,28.40
2023-05-21T16:38:00.775Z,28.30
2023-05-21T16:40:29.774Z,28.20
2023-05-21T16:45:28.794Z,28.10
2023-05-21T16:47:57.831Z,28.20
2023-05-21T16:50:26.620Z,28.20
2023-05-21T16:52:56.918Z,28.20
2023-05-21T16:55:25.832Z,28.20
2023-05-21T16:57:54.745Z,28.20
2023-05-21T17:00:23.641Z,28.30
2023-05-21T17:02:52.812Z,28.30
2023-05-21T17:05:21.978Z,28.20
2023-05-21T17:07:53.737Z,28.10
2023-05-21T17:11:18.999Z,28.00
2023-05-21T17:14:34.393Z,27.90
2023-05-21T17:17:07.641Z,27.70
2023-05-21T17:19:37.962Z,27.50
2023-05-21T17:22:07.477Z,27.50
2023-05-21T17:24:36.565Z,27.30
2023-05-21T17:27:09.658Z,27.20
2023-05-21T17:29:38.749Z,27.10
2023-05-21T17:32:08.076Z,26.90
2023-05-21T17:34:37.452Z,26.70
2023-05-21T17:37:06.662Z,26.60
2023-05-21T17:39:35.579Z,26.50
2023-05-21T17:42:04.475Z,26.40
2023-05-21T17:44:34.704Z,26.20
2023-05-21T17:47:03.878Z,26.20
2023-05-21T17:49:32.886Z,26.10
2023-05-21T17:52:04.550Z,26.00
2023-05-21T17:54:58.622Z,25.90
2023-05-21T17:57:30.263Z,25.80
2023-05-21T18:00:04.614Z,25.80
2023-05-21T18:02:45.562Z,25.80
2023-05-21T18:05:15.165Z,25.90
2023-05-21T18:07:44.125Z,25.90
2023-05-21T18:10:15.571Z,25.80
2023-05-21T18:12:46.466Z,25.70
2023-05-21T18:15:18.170Z,25.50
2023-05-21T18:17:50.456Z,25.40
2023-05-21T18:20:19.862Z,25.30
2023-05-21T18:22:48.968Z,25.30
2023-05-21T18:25:20.974Z,25.20
2023-05-21T18:28:01.224Z,25.00
2023-05-21T18:30:35.348Z,24.70
2023-05-21T18:33:05.006Z,24.40
2023-05-21T18:35:35.964Z,24.10
2023-05-21T18:38:17.477Z,23.90
2023-05-21T18:40:47.234Z,23.60
2023-05-21T18:43:17.921Z,23.40
2023-05-21T18:45:48.854Z,23.20
2023-05-21T18:48:17.848Z,23.10
2023-05-21T18:50:47.467Z,22.90
2023-05-21T18:53:19.665Z,22.90
2023-05-21T18:55:50.826Z,22.70
2023-05-21T18:58:20.050Z,22.50
2023-05-21T19:00:50.472Z,22.40
2023-05-21T19:03:22.753Z,22.20
2023-05-21T19:05:51.773Z,22.10
2023-05-21T19:08:20.925Z,21.90
2023-05-21T19:10:49.983Z,21.80
2023-05-21T19:13:18.747Z,21.70
2023-05-21T19:15:49.467Z,21.60
2023-05-21T19:18:18.324Z,21.50
2023-05-21T19:20:47.216Z,21.40
2023-05-21T19:23:16.256Z,21.30
2023-05-21T19:25:45.158Z,21.10
2023-05-21T19:28:13.995Z,20.90
2023-05-21T19:30:42.838Z,20.90
2023-05-21T19:34:06.154Z,20.80
2023-05-21T19:36:51.567Z,20.70
2023-05-21T19:39:22.074Z,20.60
2023-05-21T19:41:51.791Z,20.60
2023-05-21T19:44:48.166Z,20.60
2023-05-21T19:47:16.916Z,20.50
2023-05-21T19:49:45.881Z,20.60
2023-05-21T19:52:16.300Z,20.50
2023-05-21T19:54:48.907Z,20.50
2023-05-21T19:57:17.789Z,20.30
2023-05-21T19:59:46.586Z,20.10
2023-05-21T20:02:17.177Z,20.00
2023-05-21T20:04:46.405Z,19.80
2023-05-21T20:07:16.756Z,19.60
2023-05-21T20:09:45.667Z,19.50
2023-05-21T20:12:16.281Z,19.40
2023-05-21T20:14:46.950Z,19.30
2023-05-21T20:17:15.922Z,19.20
2023-05-21T20:19:48.093Z,19.10
2023-05-21T20:22:18.343Z,19.10
2023-05-21T20:24:47.165Z,19.10
2023-05-21T20:27:19.662Z,19.00
2023-05-21T20:29:48.642Z,19.00
2023-05-21T20:32:17.335Z,18.80
2023-05-21T20:35:02.121Z,18.70
2023-05-21T20:37:34.075Z,18.60
2023-05-21T20:40:02.845Z,18.50
2023-05-21T20:42:35.060Z,18.50
2023-05-21T20:45:04.681Z,18.50
2023-05-21T20:47:34.030Z,18.40
2023-05-21T20:50:04.223Z,18.30
2023-05-21T20:52:34.448Z,18.30
2023-05-21T20:55:04.697Z,18.20
2023-05-21T20:57:33.611Z,18.20
2023-05-21T21:00:02.525Z,18.20
2023-05-21T21:02:31.534Z,18.30
2023-05-21T21:05:02.617Z,18.30
2023-05-21T21:07:37.267Z,18.20
2023-05-21T21:10:08.595Z,18.20
2023-05-21T21:12:44.327Z,18.20
2023-05-21T21:15:13.236Z,18.20
2023-05-21T21:17:42.008Z,18.10
2023-05-21T21:20:12.985Z,18.10
2023-05-21T21:22:41.904Z,18.10
2023-05-21T21:25:12.570Z,18.00
2023-05-21T21:27:42.577Z,18.00
2023-05-21T21:30:12.486Z,17.90
2023-05-21T21:32:41.691Z,17.80
2023-05-21T21:35:11.483Z,17.80
2023-05-21T21:37:40.366Z,17.80
2023-05-21T21:40:11.976Z,17.70
2023-05-21T21:42:41.367Z,17.70
2023-05-21T21:45:11.427Z,17.70
2023-05-21T21:47:40.345Z,17.60
2023-05-21T21:50:09.959Z,17.60
2023-05-21T21:52:40.644Z,17.50
2023-05-21T21:55:12.621Z,17.50
2023-05-21T21:57:41.313Z,17.50
2023-05-21T22:00:15.915Z,17.40
2023-05-21T22:02:46.640Z,17.50
2023-05-21T22:05:16.008Z,17.50
2023-05-21T22:07:46.769Z,17.50
2023-05-21T22:10:18.220Z,17.50
2023-05-21T22:12:47.408Z,17.40
2023-05-21T22:15:20.456Z,17.30
2023-05-21T22:17:50.284Z,17.30
2023-05-21T22:20:19.369Z,17.30
2023-05-21T22:22:48.130Z,17.20
2023-05-21T22:25:18.403Z,17.20
2023-05-21T22:27:47.045Z,17.10
2023-05-21T22:30:15.898Z,17.10
2023-05-21T22:32:44.757Z,17.00
2023-05-21T22:35:13.864Z,17.00
2023-05-21T22:37:42.741Z,16.90
2023-05-21T22:40:12.063Z,16.90
2023-05-21T22:42:42.287Z,16.70
2023-05-21T22:45:12.035Z,16.70
2023-05-21T22:47:41.065Z,16.70
2023-05-21T22:50:11.420Z,16.60
2023-05-21T22:52:40.343Z,16.70
2023-05-21T22:55:11.424Z,16.60
2023-05-21T22:57:41.763Z,16.60
2023-05-21T23:00:11.791Z,16.50
2023-05-21T23:02:40.553Z,16.50
2023-05-21T23:05:10.125Z,16.50
2023-05-21T23:07:39.069Z,16.40
2023-05-21T23:10:08.833Z,16.40
2023-05-21T23:12:38.810Z,16.40
2023-05-21T23:15:10.964Z,16.30
2023-05-21T23:17:39.889Z,16.30
2023-05-21T23:20:10.653Z,16.30
2023-05-21T23:22:39.446Z,16.20
2023-05-21T23:25:09.532Z,16.20
2023-05-21T23:27:38.424Z,16.10
2023-05-21T23:30:10.881Z,16.00
2023-05-21T23:32:39.592Z,16.00
2023-05-21T23:35:09.496Z,15.90
2023-05-21T23:37:38.240Z,15.90
2023-05-21T23:40:08.364Z,15.90
2023-05-21T23:42:37.119Z,15.80
2023-05-21T23:45:06.486Z,15.70
2023-05-21T23:47:36.960Z,15.70
2023-05-21T23:50:06.502Z,15.70
2023-05-21T23:52:35.888Z,15.70
2023-05-21T23:55:04.717Z,15.70
2023-05-21T23:57:33.434Z,15.70
